18 Apr 2019 15:20 UTC 2019108+15:20 UTC

Overview Datums Bench Marks Data Query Site Visit Daily QC Messages Attributes

170: National Park Service - Baffin Bay

27° 17' 49" N   97° 24' 17" W
NPSBB
United States National Park Service United States National Park Service

Station Information

National Park Service - Baffin Bay
National Park Service - Baffin Bay
more pictures
 
Station Name:National Park Service - Baffin Bay
DNR ID:170
Location:27° 17' 49" N, 97° 24' 17" W

Water Level Forecasts

Latest Observations

Series Metric English Marine Observed at
Water Temperature 22.9 °C 73.2 °F 73.2 °F Apr 18 10:12 CDT
00h07m ago
Salinity 30.000 psu 30.000 psu 30.000 psu Apr 18 10:12 CDT
00h07m ago
pH 7.90 pH 7.90 pH 7.90 pH Apr 18 10:12 CDT
00h07m ago
Turbidity -278 ntu -278 ntu -278 ntu Apr 18 10:12 CDT
00h07m ago
Dissolved Oxygen 6.43 mg/L 0.000401 lb/ft3 0.000401 lb/ft3 Apr 18 10:12 CDT
00h07m ago

Maps

National Park Service - Baffin Bay
All Stations in Area
Entire Network
 

Recent Observations

Date/Time Water
Temp (°F)
Sal (psu) pH (pH) Turb (ntu) DO (lb/ft3)
Apr 18 10:00 CDT 72.9 30.000 7.89 -285 0.000400
Apr 18 09:00 CDT 72.5 29.900 7.88 -265 0.000391
Apr 18 08:00 CDT 72.0 29.800 7.88 -223 0.000396
Apr 18 07:00 CDT 72.9 29.800 7.88 -184 0.000390
Apr 18 06:00 CDT 73.9 29.900 7.89 -267 0.000378
Apr 18 05:00 CDT 74.1 30.000 7.91 -297 0.000373
Apr 18 04:00 CDT 73.8 30.200 7.91 -250 0.000383
Apr 18 03:00 CDT 73.9 30.200 7.92 -263 0.000390
Apr 18 02:00 CDT 74.3 30.600 7.92 -269 0.000395
Apr 18 01:00 CDT 74.7 30.600 7.92 -302 0.000396
Apr 18 00:00 CDT 74.7 29.600 7.90 -248 0.000393
Apr 17 23:00 CDT 74.8 29.500 7.86 -246 0.000383
Apr 17 22:00 CDT 75.0 29.500 7.86 -282 0.000383
Apr 17 21:00 CDT 75.4 29.700 7.91 -295 0.000401
Apr 17 20:00 CDT 75.7 29.800 7.94 -293 0.000412
Apr 17 19:00 CDT 75.7 30.100 7.94 -295 0.000417
Apr 17 18:00 CDT 75.9 30.100 7.94 -289 0.000421
Apr 17 17:00 CDT 76.5 29.800 7.99 -294 0.000435
Apr 17 16:00 CDT 77.0 29.600 8.05 -281 0.000468
Apr 17 15:00 CDT 76.6 29.500 8.07 -282 0.000472
Apr 17 14:00 CDT 75.9 29.500 8.03 -286 0.000453
Apr 17 13:00 CDT 75.7 29.600 8.02 -288 0.000446
Apr 17 12:00 CDT 75.0 29.700 7.99 -273 0.000434
Apr 17 11:00 CDT 73.9 29.800 7.94 -281 0.000401
Apr 17 10:00 CDT 73.4 30.000 7.91 -284 0.000378

Historical Data Availability